sensor_id;sensor_type;location;lat;lon;timestamp;P1;durP1;ratioP1;P2;durP2;ratioP2
46561;SDS011;32289;42.688;23.330;2022-12-07T00:02:24;24.58;;;7.03;;
46561;SDS011;32289;42.688;23.330;2022-12-07T00:06:05;20.40;;;6.97;;
46561;SDS011;32289;42.688;23.330;2022-12-07T00:09:47;17.30;;;6.30;;
46561;SDS011;32289;42.688;23.330;2022-12-07T00:13:29;21.02;;;8.05;;
46561;SDS011;32289;42.688;23.330;2022-12-07T00:17:11;25.08;;;8.15;;
46561;SDS011;32289;42.688;23.330;2022-12-07T00:20:52;15.48;;;6.18;;
46561;SDS011;32289;42.688;23.330;2022-12-07T00:24:33;18.60;;;6.63;;
46561;SDS011;32289;42.688;23.330;2022-12-07T00:28:13;20.13;;;7.30;;
46561;SDS011;32289;42.688;23.330;2022-12-07T00:31:54;19.60;;;7.05;;
46561;SDS011;32289;42.688;23.330;2022-12-07T00:35:35;15.05;;;6.07;;
46561;SDS011;32289;42.688;23.330;2022-12-07T00:39:15;22.80;;;7.53;;
46561;SDS011;32289;42.688;23.330;2022-12-07T00:42:56;17.73;;;7.47;;
46561;SDS011;32289;42.688;23.330;2022-12-07T00:46:37;22.48;;;8.20;;
46561;SDS011;32289;42.688;23.330;2022-12-07T00:50:18;21.00;;;8.55;;
46561;SDS011;32289;42.688;23.330;2022-12-07T00:53:58;20.52;;;8.63;;
46561;SDS011;32289;42.688;23.330;2022-12-07T00:57:39;30.98;;;8.10;;
46561;SDS011;32289;42.688;23.330;2022-12-07T01:01:20;17.13;;;7.13;;
46561;SDS011;32289;42.688;23.330;2022-12-07T01:05:01;19.02;;;7.38;;
46561;SDS011;32289;42.688;23.330;2022-12-07T01:08:42;17.75;;;8.15;;
46561;SDS011;32289;42.688;23.330;2022-12-07T01:12:23;19.40;;;8.43;;
46561;SDS011;32289;42.688;23.330;2022-12-07T01:16:04;17.85;;;6.63;;
46561;SDS011;32289;42.688;23.330;2022-12-07T01:19:46;17.33;;;7.65;;
46561;SDS011;32289;42.688;23.330;2022-12-07T01:23:26;15.25;;;6.82;;
46561;SDS011;32289;42.688;23.330;2022-12-07T01:27:07;15.00;;;7.78;;
46561;SDS011;32289;42.688;23.330;2022-12-07T01:31:10;18.25;;;7.97;;
46561;SDS011;32289;42.688;23.330;2022-12-07T01:34:56;20.50;;;7.65;;
46561;SDS011;32289;42.688;23.330;2022-12-07T01:38:37;20.40;;;7.05;;
46561;SDS011;32289;42.688;23.330;2022-12-07T01:42:18;16.42;;;6.95;;
46561;SDS011;32289;42.688;23.330;2022-12-07T01:45:59;18.55;;;7.15;;
46561;SDS011;32289;42.688;23.330;2022-12-07T01:49:41;17.52;;;7.20;;
46561;SDS011;32289;42.688;23.330;2022-12-07T01:53:25;15.00;;;6.00;;
46561;SDS011;32289;42.688;23.330;2022-12-07T01:57:09;15.75;;;6.75;;
46561;SDS011;32289;42.688;23.330;2022-12-07T02:00:51;13.05;;;6.40;;
46561;SDS011;32289;42.688;23.330;2022-12-07T02:04:32;16.42;;;6.85;;
46561;SDS011;32289;42.688;23.330;2022-12-07T02:08:15;13.63;;;6.38;;
46561;SDS011;32289;42.688;23.330;2022-12-07T02:11:57;21.05;;;8.27;;
46561;SDS011;32289;42.688;23.330;2022-12-07T02:31:46;21.35;;;6.68;;
46561;SDS011;32289;42.688;23.330;2022-12-07T02:35:40;23.83;;;7.63;;
46561;SDS011;32289;42.688;23.330;2022-12-07T02:40:33;15.43;;;7.13;;
46561;SDS011;32289;42.688;23.330;2022-12-07T02:43:54;12.45;;;6.15;;
46561;SDS011;32289;42.688;23.330;2022-12-07T02:47:38;19.13;;;7.72;;
46561;SDS011;32289;42.688;23.330;2022-12-07T02:51:20;13.82;;;6.90;;
46561;SDS011;32289;42.688;23.330;2022-12-07T02:55:02;17.33;;;5.93;;
46561;SDS011;32289;42.688;23.330;2022-12-07T03:03:12;16.23;;;7.30;;
46561;SDS011;32289;42.688;23.330;2022-12-07T03:07:05;18.17;;;6.75;;
46561;SDS011;32289;42.688;23.330;2022-12-07T03:11:03;15.60;;;7.35;;
46561;SDS011;32289;42.688;23.330;2022-12-07T03:14:51;13.80;;;7.00;;
46561;SDS011;32289;42.688;23.330;2022-12-07T03:18:44;23.13;;;6.47;;
46561;SDS011;32289;42.688;23.330;2022-12-07T03:22:37;18.17;;;6.70;;
46561;SDS011;32289;42.688;23.330;2022-12-07T03:26:20;17.52;;;6.88;;
46561;SDS011;32289;42.688;23.330;2022-12-07T03:30:05;19.92;;;8.13;;
46561;SDS011;32289;42.688;23.330;2022-12-07T03:37:57;18.52;;;7.15;;
46561;SDS011;32289;42.688;23.330;2022-12-07T03:41:42;14.40;;;6.93;;
46561;SDS011;32289;42.688;23.330;2022-12-07T03:45:24;18.50;;;9.13;;
46561;SDS011;32289;42.688;23.330;2022-12-07T03:57:04;16.05;;;6.50;;
46561;SDS011;32289;42.688;23.330;2022-12-07T04:00:47;23.75;;;8.63;;
46561;SDS011;32289;42.688;23.330;2022-12-07T04:04:29;15.65;;;6.78;;
46561;SDS011;32289;42.688;23.330;2022-12-07T04:08:10;18.45;;;8.00;;
46561;SDS011;32289;42.688;23.330;2022-12-07T04:11:51;14.80;;;6.97;;
46561;SDS011;32289;42.688;23.330;2022-12-07T04:15:31;19.75;;;8.48;;
46561;SDS011;32289;42.688;23.330;2022-12-07T04:19:12;14.50;;;7.10;;
46561;SDS011;32289;42.688;23.330;2022-12-07T04:22:53;17.00;;;8.10;;
46561;SDS011;32289;42.688;23.330;2022-12-07T04:26:34;17.67;;;8.35;;
46561;SDS011;32289;42.688;23.330;2022-12-07T04:30:15;18.48;;;7.88;;
46561;SDS011;32289;42.688;23.330;2022-12-07T04:33:55;21.95;;;8.90;;
46561;SDS011;32289;42.688;23.330;2022-12-07T04:37:36;21.60;;;8.05;;
46561;SDS011;32289;42.688;23.330;2022-12-07T04:41:19;21.85;;;8.10;;
46561;SDS011;32289;42.688;23.330;2022-12-07T04:45:06;17.00;;;8.90;;
46561;SDS011;32289;42.688;23.330;2022-12-07T04:48:48;20.98;;;7.93;;
46561;SDS011;32289;42.688;23.330;2022-12-07T04:52:28;20.30;;;8.45;;
46561;SDS011;32289;42.688;23.330;2022-12-07T04:56:09;20.25;;;8.18;;
46561;SDS011;32289;42.688;23.330;2022-12-07T04:59:50;20.67;;;7.53;;
46561;SDS011;32289;42.688;23.330;2022-12-07T05:03:30;28.50;;;8.50;;
46561;SDS011;32289;42.688;23.330;2022-12-07T05:07:11;18.38;;;8.48;;
46561;SDS011;32289;42.688;23.330;2022-12-07T05:10:52;20.85;;;8.60;;
46561;SDS011;32289;42.688;23.330;2022-12-07T05:14:32;19.88;;;7.78;;
46561;SDS011;32289;42.688;23.330;2022-12-07T05:18:13;19.08;;;7.93;;
46561;SDS011;32289;42.688;23.330;2022-12-07T05:21:54;18.65;;;9.63;;
46561;SDS011;32289;42.688;23.330;2022-12-07T05:25:35;19.88;;;8.40;;
46561;SDS011;32289;42.688;23.330;2022-12-07T05:29:16;17.38;;;7.80;;
46561;SDS011;32289;42.688;23.330;2022-12-07T05:32:57;19.98;;;8.93;;
46561;SDS011;32289;42.688;23.330;2022-12-07T05:36:38;18.48;;;7.60;;
46561;SDS011;32289;42.688;23.330;2022-12-07T05:40:19;23.10;;;10.23;;
46561;SDS011;32289;42.688;23.330;2022-12-07T05:44:00;33.75;;;12.73;;
46561;SDS011;32289;42.688;23.330;2022-12-07T05:47:41;20.98;;;9.65;;
46561;SDS011;32289;42.688;23.330;2022-12-07T05:51:21;23.63;;;9.13;;
46561;SDS011;32289;42.688;23.330;2022-12-07T05:55:02;16.55;;;8.18;;
46561;SDS011;32289;42.688;23.330;2022-12-07T05:58:43;24.15;;;9.70;;
46561;SDS011;32289;42.688;23.330;2022-12-07T06:02:42;22.67;;;8.73;;
46561;SDS011;32289;42.688;23.330;2022-12-07T06:06:23;26.33;;;11.48;;
46561;SDS011;32289;42.688;23.330;2022-12-07T06:10:04;17.67;;;9.05;;
46561;SDS011;32289;42.688;23.330;2022-12-07T06:13:45;34.05;;;10.65;;
46561;SDS011;32289;42.688;23.330;2022-12-07T06:17:25;24.02;;;9.93;;
46561;SDS011;32289;42.688;23.330;2022-12-07T06:21:06;26.77;;;8.73;;
46561;SDS011;32289;42.688;23.330;2022-12-07T06:24:47;16.38;;;8.02;;
46561;SDS011;32289;42.688;23.330;2022-12-07T06:28:27;24.48;;;8.85;;
46561;SDS011;32289;42.688;23.330;2022-12-07T06:32:08;25.52;;;9.57;;
46561;SDS011;32289;42.688;23.330;2022-12-07T06:35:49;24.38;;;10.27;;
46561;SDS011;32289;42.688;23.330;2022-12-07T06:39:30;22.98;;;10.50;;
46561;SDS011;32289;42.688;23.330;2022-12-07T06:43:11;20.48;;;9.23;;
46561;SDS011;32289;42.688;23.330;2022-12-07T06:46:52;15.65;;;7.80;;
46561;SDS011;32289;42.688;23.330;2022-12-07T06:50:33;22.25;;;8.10;;
46561;SDS011;32289;42.688;23.330;2022-12-07T06:54:14;22.58;;;9.85;;
46561;SDS011;32289;42.688;23.330;2022-12-07T06:57:55;25.77;;;9.55;;
46561;SDS011;32289;42.688;23.330;2022-12-07T07:01:36;22.90;;;9.98;;
46561;SDS011;32289;42.688;23.330;2022-12-07T07:05:17;24.42;;;9.73;;
46561;SDS011;32289;42.688;23.330;2022-12-07T07:08:57;22.15;;;10.10;;
46561;SDS011;32289;42.688;23.330;2022-12-07T07:12:38;19.20;;;8.55;;
46561;SDS011;32289;42.688;23.330;2022-12-07T07:16:19;20.83;;;8.40;;
46561;SDS011;32289;42.688;23.330;2022-12-07T07:19:59;18.73;;;9.70;;
46561;SDS011;32289;42.688;23.330;2022-12-07T07:23:40;19.67;;;8.52;;
46561;SDS011;32289;42.688;23.330;2022-12-07T07:27:21;23.05;;;10.13;;
46561;SDS011;32289;42.688;23.330;2022-12-07T07:31:01;19.90;;;8.73;;
46561;SDS011;32289;42.688;23.330;2022-12-07T07:34:42;27.25;;;9.07;;
46561;SDS011;32289;42.688;23.330;2022-12-07T07:38:23;21.63;;;10.40;;
46561;SDS011;32289;42.688;23.330;2022-12-07T07:42:04;19.45;;;8.43;;
46561;SDS011;32289;42.688;23.330;2022-12-07T07:45:45;20.85;;;9.55;;
46561;SDS011;32289;42.688;23.330;2022-12-07T07:49:26;20.48;;;10.18;;
46561;SDS011;32289;42.688;23.330;2022-12-07T07:53:06;22.60;;;10.35;;
46561;SDS011;32289;42.688;23.330;2022-12-07T07:56:48;27.00;;;12.68;;
46561;SDS011;32289;42.688;23.330;2022-12-07T08:00:29;29.45;;;13.95;;
46561;SDS011;32289;42.688;23.330;2022-12-07T08:04:09;40.13;;;14.23;;
46561;SDS011;32289;42.688;23.330;2022-12-07T08:07:50;26.88;;;13.00;;
46561;SDS011;32289;42.688;23.330;2022-12-07T08:11:31;36.00;;;14.43;;
46561;SDS011;32289;42.688;23.330;2022-12-07T08:15:12;29.50;;;12.73;;
46561;SDS011;32289;42.688;23.330;2022-12-07T08:18:52;28.95;;;13.45;;
46561;SDS011;32289;42.688;23.330;2022-12-07T08:22:33;25.67;;;12.52;;
46561;SDS011;32289;42.688;23.330;2022-12-07T08:26:15;28.17;;;12.43;;
46561;SDS011;32289;42.688;23.330;2022-12-07T08:29:56;35.47;;;12.82;;
46561;SDS011;32289;42.688;23.330;2022-12-07T08:33:37;25.88;;;12.15;;
46561;SDS011;32289;42.688;23.330;2022-12-07T08:37:18;34.33;;;12.10;;
46561;SDS011;32289;42.688;23.330;2022-12-07T08:40:59;26.63;;;12.70;;
46561;SDS011;32289;42.688;23.330;2022-12-07T08:44:40;33.17;;;12.30;;
46561;SDS011;32289;42.688;23.330;2022-12-07T08:48:20;30.30;;;13.02;;
46561;SDS011;32289;42.688;23.330;2022-12-07T08:52:04;31.48;;;11.77;;
46561;SDS011;32289;42.688;23.330;2022-12-07T08:55:45;25.25;;;11.38;;
46561;SDS011;32289;42.688;23.330;2022-12-07T08:59:27;29.48;;;10.48;;
46561;SDS011;32289;42.688;23.330;2022-12-07T09:03:09;37.00;;;12.82;;
46561;SDS011;32289;42.688;23.330;2022-12-07T09:06:49;21.70;;;9.25;;
46561;SDS011;32289;42.688;23.330;2022-12-07T09:10:30;30.33;;;10.48;;
46561;SDS011;32289;42.688;23.330;2022-12-07T09:14:11;26.38;;;10.88;;
46561;SDS011;32289;42.688;23.330;2022-12-07T09:17:53;27.67;;;10.43;;
46561;SDS011;32289;42.688;23.330;2022-12-07T09:21:33;23.05;;;11.07;;
46561;SDS011;32289;42.688;23.330;2022-12-07T09:25:14;26.73;;;10.45;;
46561;SDS011;32289;42.688;23.330;2022-12-07T09:28:55;24.27;;;9.68;;
46561;SDS011;32289;42.688;23.330;2022-12-07T09:32:35;27.38;;;10.60;;
46561;SDS011;32289;42.688;23.330;2022-12-07T09:36:16;24.73;;;10.70;;
46561;SDS011;32289;42.688;23.330;2022-12-07T09:39:57;22.27;;;9.95;;
46561;SDS011;32289;42.688;23.330;2022-12-07T09:43:38;27.63;;;11.15;;
46561;SDS011;32289;42.688;23.330;2022-12-07T09:47:20;24.08;;;11.68;;
46561;SDS011;32289;42.688;23.330;2022-12-07T09:51:01;28.75;;;11.18;;
46561;SDS011;32289;42.688;23.330;2022-12-07T09:54:45;21.30;;;9.45;;
46561;SDS011;32289;42.688;23.330;2022-12-07T09:58:28;32.88;;;12.82;;
46561;SDS011;32289;42.688;23.330;2022-12-07T10:02:23;28.35;;;12.88;;
46561;SDS011;32289;42.688;23.330;2022-12-07T10:06:12;33.33;;;11.88;;
46561;SDS011;32289;42.688;23.330;2022-12-07T10:09:53;29.92;;;12.32;;
46561;SDS011;32289;42.688;23.330;2022-12-07T10:13:35;26.27;;;12.95;;
46561;SDS011;32289;42.688;23.330;2022-12-07T10:17:27;24.52;;;11.20;;
46561;SDS011;32289;42.688;23.330;2022-12-07T10:21:15;29.77;;;13.00;;
46561;SDS011;32289;42.688;23.330;2022-12-07T10:24:56;27.23;;;11.43;;
46561;SDS011;32289;42.688;23.330;2022-12-07T10:28:49;25.58;;;11.82;;
46561;SDS011;32289;42.688;23.330;2022-12-07T10:39:59;31.45;;;13.48;;
46561;SDS011;32289;42.688;23.330;2022-12-07T10:43:46;30.15;;;13.07;;
46561;SDS011;32289;42.688;23.330;2022-12-07T10:51:23;23.33;;;11.07;;
46561;SDS011;32289;42.688;23.330;2022-12-07T11:06:49;22.27;;;8.73;;
46561;SDS011;32289;42.688;23.330;2022-12-07T11:23:09;19.27;;;9.25;;
46561;SDS011;32289;42.688;23.330;2022-12-07T11:27:04;21.80;;;8.32;;
46561;SDS011;32289;42.688;23.330;2022-12-07T11:34:37;17.65;;;7.53;;
46561;SDS011;32289;42.688;23.330;2022-12-07T11:38:42;18.60;;;8.48;;
46561;SDS011;32289;42.688;23.330;2022-12-07T11:42:39;21.77;;;6.97;;
46561;SDS011;32289;42.688;23.330;2022-12-07T11:46:25;15.10;;;6.80;;
46561;SDS011;32289;42.688;23.330;2022-12-07T12:02:15;22.20;;;8.57;;
46561;SDS011;32289;42.688;23.330;2022-12-07T12:05:58;19.58;;;7.72;;
46561;SDS011;32289;42.688;23.330;2022-12-07T12:09:47;16.30;;;8.82;;
46561;SDS011;32289;42.688;23.330;2022-12-07T12:13:54;19.50;;;8.45;;
46561;SDS011;32289;42.688;23.330;2022-12-07T12:17:54;19.23;;;7.40;;
46561;SDS011;32289;42.688;23.330;2022-12-07T12:21:55;16.55;;;7.63;;
46561;SDS011;32289;42.688;23.330;2022-12-07T12:25:40;16.50;;;7.80;;
46561;SDS011;32289;42.688;23.330;2022-12-07T12:29:36;17.27;;;7.90;;
46561;SDS011;32289;42.688;23.330;2022-12-07T12:33:24;17.63;;;7.25;;
46561;SDS011;32289;42.688;23.330;2022-12-07T12:45:39;14.30;;;6.78;;
46561;SDS011;32289;42.688;23.330;2022-12-07T12:53:43;18.20;;;7.75;;
46561;SDS011;32289;42.688;23.330;2022-12-07T13:00:47;17.23;;;7.25;;
46561;SDS011;32289;42.688;23.330;2022-12-07T13:08:35;34.92;;;9.45;;
46561;SDS011;32289;42.688;23.330;2022-12-07T13:12:21;17.65;;;6.43;;
46561;SDS011;32289;42.688;23.330;2022-12-07T13:23:37;32.65;;;15.23;;
46561;SDS011;32289;42.688;23.330;2022-12-07T13:27:18;22.08;;;8.80;;
46561;SDS011;32289;42.688;23.330;2022-12-07T13:31:04;12.82;;;6.03;;
46561;SDS011;32289;42.688;23.330;2022-12-07T13:43:03;21.17;;;7.22;;
46561;SDS011;32289;42.688;23.330;2022-12-07T13:50:56;11.68;;;5.13;;
46561;SDS011;32289;42.688;23.330;2022-12-07T13:54:43;22.85;;;6.55;;
46561;SDS011;32289;42.688;23.330;2022-12-07T13:58:26;12.73;;;5.55;;
46561;SDS011;32289;42.688;23.330;2022-12-07T14:02:21;12.95;;;5.63;;
46561;SDS011;32289;42.688;23.330;2022-12-07T14:06:03;12.93;;;5.38;;
46561;SDS011;32289;42.688;23.330;2022-12-07T14:13:40;13.48;;;5.03;;
46561;SDS011;32289;42.688;23.330;2022-12-07T14:17:51;18.27;;;6.03;;
46561;SDS011;32289;42.688;23.330;2022-12-07T14:21:33;14.45;;;5.80;;
46561;SDS011;32289;42.688;23.330;2022-12-07T14:25:18;14.13;;;6.78;;
46561;SDS011;32289;42.688;23.330;2022-12-07T14:33:19;15.38;;;6.13;;
46561;SDS011;32289;42.688;23.330;2022-12-07T14:37:01;17.23;;;7.05;;
46561;SDS011;32289;42.688;23.330;2022-12-07T14:40:41;12.00;;;5.47;;
46561;SDS011;32289;42.688;23.330;2022-12-07T14:44:23;17.38;;;6.15;;
46561;SDS011;32289;42.688;23.330;2022-12-07T14:48:04;26.45;;;6.85;;
46561;SDS011;32289;42.688;23.330;2022-12-07T14:51:45;20.80;;;8.52;;
46561;SDS011;32289;42.688;23.330;2022-12-07T14:55:28;14.63;;;5.57;;
46561;SDS011;32289;42.688;23.330;2022-12-07T14:59:10;18.83;;;7.57;;
46561;SDS011;32289;42.688;23.330;2022-12-07T15:02:51;14.43;;;7.85;;
46561;SDS011;32289;42.688;23.330;2022-12-07T15:06:32;19.70;;;8.07;;
46561;SDS011;32289;42.688;23.330;2022-12-07T15:10:19;18.65;;;7.50;;
46561;SDS011;32289;42.688;23.330;2022-12-07T15:14:03;20.60;;;8.93;;
46561;SDS011;32289;42.688;23.330;2022-12-07T15:17:50;24.58;;;8.88;;
46561;SDS011;32289;42.688;23.330;2022-12-07T15:21:31;20.02;;;8.43;;
46561;SDS011;32289;42.688;23.330;2022-12-07T15:25:12;25.02;;;10.07;;
46561;SDS011;32289;42.688;23.330;2022-12-07T15:28:54;16.27;;;7.13;;
46561;SDS011;32289;42.688;23.330;2022-12-07T15:32:34;21.10;;;9.38;;
46561;SDS011;32289;42.688;23.330;2022-12-07T15:36:20;20.33;;;9.07;;
46561;SDS011;32289;42.688;23.330;2022-12-07T15:40:02;18.23;;;8.45;;
46561;SDS011;32289;42.688;23.330;2022-12-07T15:43:44;21.13;;;10.27;;
46561;SDS011;32289;42.688;23.330;2022-12-07T15:47:43;23.25;;;9.38;;
46561;SDS011;32289;42.688;23.330;2022-12-07T15:51:25;20.80;;;9.73;;
46561;SDS011;32289;42.688;23.330;2022-12-07T15:55:06;32.17;;;11.48;;
46561;SDS011;32289;42.688;23.330;2022-12-07T15:58:47;22.85;;;10.65;;
46561;SDS011;32289;42.688;23.330;2022-12-07T16:02:28;26.58;;;10.93;;
46561;SDS011;32289;42.688;23.330;2022-12-07T16:06:08;27.83;;;8.95;;
46561;SDS011;32289;42.688;23.330;2022-12-07T16:09:50;23.63;;;8.55;;
46561;SDS011;32289;42.688;23.330;2022-12-07T16:13:30;26.45;;;9.20;;
46561;SDS011;32289;42.688;23.330;2022-12-07T16:17:11;17.73;;;7.78;;
46561;SDS011;32289;42.688;23.330;2022-12-07T16:20:52;27.55;;;8.02;;
46561;SDS011;32289;42.688;23.330;2022-12-07T16:24:35;20.15;;;8.48;;
46561;SDS011;32289;42.688;23.330;2022-12-07T16:28:15;17.65;;;7.47;;
46561;SDS011;32289;42.688;23.330;2022-12-07T16:31:56;18.48;;;8.50;;
46561;SDS011;32289;42.688;23.330;2022-12-07T16:35:40;21.65;;;8.85;;
46561;SDS011;32289;42.688;23.330;2022-12-07T16:39:22;33.33;;;10.25;;
46561;SDS011;32289;42.688;23.330;2022-12-07T16:43:02;35.33;;;8.82;;
46561;SDS011;32289;42.688;23.330;2022-12-07T16:46:43;21.77;;;9.07;;
46561;SDS011;32289;42.688;23.330;2022-12-07T16:50:24;23.35;;;11.20;;
46561;SDS011;32289;42.688;23.330;2022-12-07T16:54:05;31.95;;;11.73;;
46561;SDS011;32289;42.688;23.330;2022-12-07T16:57:45;28.67;;;11.43;;
46561;SDS011;32289;42.688;23.330;2022-12-07T17:01:26;30.80;;;12.23;;
46561;SDS011;32289;42.688;23.330;2022-12-07T17:05:08;27.45;;;12.15;;
46561;SDS011;32289;42.688;23.330;2022-12-07T17:08:49;25.63;;;11.27;;
46561;SDS011;32289;42.688;23.330;2022-12-07T17:12:31;25.50;;;12.23;;
46561;SDS011;32289;42.688;23.330;2022-12-07T17:16:11;31.50;;;11.68;;
46561;SDS011;32289;42.688;23.330;2022-12-07T17:19:52;27.30;;;12.50;;
46561;SDS011;32289;42.688;23.330;2022-12-07T17:23:33;28.13;;;11.43;;
46561;SDS011;32289;42.688;23.330;2022-12-07T17:27:14;43.53;;;13.75;;
46561;SDS011;32289;42.688;23.330;2022-12-07T17:30:56;32.47;;;12.00;;
46561;SDS011;32289;42.688;23.330;2022-12-07T17:34:36;26.10;;;11.32;;
46561;SDS011;32289;42.688;23.330;2022-12-07T17:38:19;34.08;;;11.25;;
46561;SDS011;32289;42.688;23.330;2022-12-07T17:41:59;25.88;;;11.75;;
46561;SDS011;32289;42.688;23.330;2022-12-07T17:45:58;32.92;;;14.38;;
46561;SDS011;32289;42.688;23.330;2022-12-07T17:49:46;39.45;;;13.55;;
46561;SDS011;32289;42.688;23.330;2022-12-07T17:53:28;31.90;;;13.82;;
46561;SDS011;32289;42.688;23.330;2022-12-07T17:57:08;31.33;;;14.77;;
46561;SDS011;32289;42.688;23.330;2022-12-07T18:00:49;34.97;;;11.80;;
46561;SDS011;32289;42.688;23.330;2022-12-07T18:04:30;25.45;;;12.48;;
46561;SDS011;32289;42.688;23.330;2022-12-07T18:08:11;29.25;;;12.23;;
46561;SDS011;32289;42.688;23.330;2022-12-07T18:11:52;32.72;;;15.52;;
46561;SDS011;32289;42.688;23.330;2022-12-07T18:15:33;49.55;;;16.73;;
46561;SDS011;32289;42.688;23.330;2022-12-07T18:19:13;36.58;;;15.85;;
46561;SDS011;32289;42.688;23.330;2022-12-07T18:22:56;39.75;;;15.02;;
46561;SDS011;32289;42.688;23.330;2022-12-07T18:26:36;41.13;;;15.82;;
46561;SDS011;32289;42.688;23.330;2022-12-07T18:30:18;43.67;;;19.85;;
46561;SDS011;32289;42.688;23.330;2022-12-07T18:34:00;47.40;;;19.55;;
46561;SDS011;32289;42.688;23.330;2022-12-07T18:37:43;38.53;;;16.23;;
46561;SDS011;32289;42.688;23.330;2022-12-07T18:41:23;41.28;;;17.63;;
46561;SDS011;32289;42.688;23.330;2022-12-07T18:45:04;36.25;;;15.63;;
46561;SDS011;32289;42.688;23.330;2022-12-07T18:48:46;40.90;;;18.70;;
46561;SDS011;32289;42.688;23.330;2022-12-07T18:52:29;39.22;;;16.83;;
46561;SDS011;32289;42.688;23.330;2022-12-07T18:56:19;28.77;;;13.75;;
46561;SDS011;32289;42.688;23.330;2022-12-07T19:00:02;36.22;;;14.90;;
46561;SDS011;32289;42.688;23.330;2022-12-07T19:03:44;33.78;;;13.95;;
46561;SDS011;32289;42.688;23.330;2022-12-07T19:07:25;37.20;;;13.15;;
46561;SDS011;32289;42.688;23.330;2022-12-07T19:11:05;25.52;;;9.82;;
46561;SDS011;32289;42.688;23.330;2022-12-07T19:15:06;25.95;;;11.15;;
46561;SDS011;32289;42.688;23.330;2022-12-07T19:18:48;32.00;;;12.68;;
46561;SDS011;32289;42.688;23.330;2022-12-07T19:22:28;31.00;;;8.98;;
46561;SDS011;32289;42.688;23.330;2022-12-07T19:26:11;25.42;;;11.18;;
46561;SDS011;32289;42.688;23.330;2022-12-07T19:29:52;19.58;;;9.77;;
46561;SDS011;32289;42.688;23.330;2022-12-07T19:33:33;31.13;;;10.77;;
46561;SDS011;32289;42.688;23.330;2022-12-07T19:37:13;20.73;;;8.43;;
46561;SDS011;32289;42.688;23.330;2022-12-07T19:40:55;20.42;;;11.10;;
46561;SDS011;32289;42.688;23.330;2022-12-07T19:44:46;29.60;;;11.18;;
46561;SDS011;32289;42.688;23.330;2022-12-07T19:48:27;27.92;;;11.25;;
46561;SDS011;32289;42.688;23.330;2022-12-07T19:52:09;28.42;;;12.55;;
46561;SDS011;32289;42.688;23.330;2022-12-07T19:55:50;25.88;;;10.68;;
46561;SDS011;32289;42.688;23.330;2022-12-07T19:59:31;24.25;;;10.82;;
46561;SDS011;32289;42.688;23.330;2022-12-07T20:03:13;28.35;;;11.23;;
46561;SDS011;32289;42.688;23.330;2022-12-07T20:06:55;27.98;;;11.95;;
46561;SDS011;32289;42.688;23.330;2022-12-07T20:10:39;23.90;;;10.77;;
46561;SDS011;32289;42.688;23.330;2022-12-07T20:14:20;25.05;;;11.23;;
46561;SDS011;32289;42.688;23.330;2022-12-07T20:18:01;33.15;;;11.77;;
46561;SDS011;32289;42.688;23.330;2022-12-07T20:21:42;30.88;;;10.48;;
46561;SDS011;32289;42.688;23.330;2022-12-07T20:25:23;34.30;;;10.82;;
46561;SDS011;32289;42.688;23.330;2022-12-07T20:29:04;26.42;;;10.85;;
46561;SDS011;32289;42.688;23.330;2022-12-07T20:32:49;28.17;;;10.35;;
46561;SDS011;32289;42.688;23.330;2022-12-07T20:36:30;20.60;;;10.52;;
46561;SDS011;32289;42.688;23.330;2022-12-07T20:40:11;26.45;;;11.18;;
46561;SDS011;32289;42.688;23.330;2022-12-07T20:43:51;27.92;;;10.38;;
46561;SDS011;32289;42.688;23.330;2022-12-07T20:47:34;25.20;;;9.25;;
46561;SDS011;32289;42.688;23.330;2022-12-07T20:51:15;19.27;;;9.70;;
46561;SDS011;32289;42.688;23.330;2022-12-07T20:54:56;19.48;;;8.90;;
46561;SDS011;32289;42.688;23.330;2022-12-07T20:58:37;23.17;;;10.20;;
46561;SDS011;32289;42.688;23.330;2022-12-07T21:02:18;24.55;;;9.80;;
46561;SDS011;32289;42.688;23.330;2022-12-07T21:06:01;22.40;;;9.77;;
46561;SDS011;32289;42.688;23.330;2022-12-07T21:09:46;21.48;;;9.27;;
46561;SDS011;32289;42.688;23.330;2022-12-07T21:13:26;18.15;;;8.15;;
46561;SDS011;32289;42.688;23.330;2022-12-07T21:17:07;21.58;;;9.13;;
46561;SDS011;32289;42.688;23.330;2022-12-07T21:20:49;26.98;;;10.43;;
46561;SDS011;32289;42.688;23.330;2022-12-07T21:24:30;18.95;;;9.30;;
46561;SDS011;32289;42.688;23.330;2022-12-07T21:28:10;19.02;;;8.23;;
46561;SDS011;32289;42.688;23.330;2022-12-07T21:31:51;20.10;;;8.38;;
46561;SDS011;32289;42.688;23.330;2022-12-07T21:35:32;21.15;;;9.00;;
46561;SDS011;32289;42.688;23.330;2022-12-07T21:39:12;24.63;;;8.65;;
46561;SDS011;32289;42.688;23.330;2022-12-07T21:42:53;31.52;;;9.43;;
46561;SDS011;32289;42.688;23.330;2022-12-07T21:46:34;23.73;;;10.25;;
46561;SDS011;32289;42.688;23.330;2022-12-07T21:50:15;22.75;;;10.48;;
46561;SDS011;32289;42.688;23.330;2022-12-07T21:53:56;28.38;;;10.32;;
46561;SDS011;32289;42.688;23.330;2022-12-07T21:57:38;31.08;;;10.60;;
46561;SDS011;32289;42.688;23.330;2022-12-07T22:01:20;22.75;;;9.75;;
46561;SDS011;32289;42.688;23.330;2022-12-07T22:05:03;19.00;;;9.85;;
46561;SDS011;32289;42.688;23.330;2022-12-07T22:08:44;23.15;;;10.75;;
46561;SDS011;32289;42.688;23.330;2022-12-07T22:12:24;26.15;;;11.57;;
46561;SDS011;32289;42.688;23.330;2022-12-07T22:16:05;23.98;;;11.35;;
46561;SDS011;32289;42.688;23.330;2022-12-07T22:19:46;28.70;;;10.73;;
46561;SDS011;32289;42.688;23.330;2022-12-07T22:23:27;28.10;;;11.30;;
46561;SDS011;32289;42.688;23.330;2022-12-07T22:27:10;27.30;;;11.38;;
46561;SDS011;32289;42.688;23.330;2022-12-07T22:30:51;28.67;;;12.57;;
46561;SDS011;32289;42.688;23.330;2022-12-07T22:34:31;28.17;;;10.55;;
46561;SDS011;32289;42.688;23.330;2022-12-07T22:38:12;29.95;;;13.23;;
46561;SDS011;32289;42.688;23.330;2022-12-07T22:41:53;33.97;;;13.13;;
46561;SDS011;32289;42.688;23.330;2022-12-07T22:45:33;31.25;;;14.73;;
46561;SDS011;32289;42.688;23.330;2022-12-07T22:49:14;34.85;;;13.18;;
46561;SDS011;32289;42.688;23.330;2022-12-07T22:52:55;25.33;;;11.60;;
46561;SDS011;32289;42.688;23.330;2022-12-07T22:56:36;30.55;;;11.45;;
46561;SDS011;32289;42.688;23.330;2022-12-07T23:00:17;30.83;;;13.77;;
46561;SDS011;32289;42.688;23.330;2022-12-07T23:03:58;35.05;;;15.63;;
46561;SDS011;32289;42.688;23.330;2022-12-07T23:07:39;28.08;;;13.68;;
46561;SDS011;32289;42.688;23.330;2022-12-07T23:11:20;28.30;;;12.70;;
46561;SDS011;32289;42.688;23.330;2022-12-07T23:15:21;35.75;;;12.50;;
46561;SDS011;32289;42.688;23.330;2022-12-07T23:19:02;30.08;;;13.30;;
46561;SDS011;32289;42.688;23.330;2022-12-07T23:22:43;32.63;;;12.98;;
46561;SDS011;32289;42.688;23.330;2022-12-07T23:26:24;25.92;;;11.75;;
46561;SDS011;32289;42.688;23.330;2022-12-07T23:30:05;27.38;;;9.43;;
46561;SDS011;32289;42.688;23.330;2022-12-07T23:33:46;33.08;;;8.90;;
46561;SDS011;32289;42.688;23.330;2022-12-07T23:37:26;22.73;;;11.00;;
46561;SDS011;32289;42.688;23.330;2022-12-07T23:41:11;29.52;;;9.80;;
46561;SDS011;32289;42.688;23.330;2022-12-07T23:44:53;15.77;;;8.90;;
46561;SDS011;32289;42.688;23.330;2022-12-07T23:48:34;18.60;;;9.93;;